Time;durP1;ratioP1;P1;durP2;ratioP2;P2;SDS_P1;SDS_P2;PMS_P1;PMS_P2;Temp;Humidity;BMP_temperature;BMP_pressure;BME280_temperature;BME280_humidity;BME280_pressure;Samples;Min_cycle;Max_cycle;Signal;HPM_P1;HPM_P2
2023/08/22 00:00:14;;;;;;;0.00;0.00;;;18.70;99.90;;;;;;4940166;28;20042;-69
2023/08/22 00:02:40;;;;;;;0.00;0.00;;;18.70;99.90;;;;;;4966492;28;20053;-69
2023/08/22 00:05:07;;;;;;;0.00;0.00;;;18.80;99.90;;;;;;4918524;28;20045;-70
2023/08/22 00:07:33;;;;;;;0.00;0.00;;;18.70;99.90;;;;;;4932489;28;20159;-69
2023/08/22 00:09:58;;;;;;;0.77;0.65;;;18.70;99.90;;;;;;4915336;28;20506;-69
2023/08/22 00:12:24;;;;;;;2.03;0.95;;;18.70;99.90;;;;;;4923666;28;20110;-69
2023/08/22 00:14:50;;;;;;;0.15;0.15;;;18.60;99.90;;;;;;4929831;28;20435;-69
2023/08/22 00:17:16;;;;;;;3.10;0.40;;;18.70;99.90;;;;;;4913311;28;20443;-69
2023/08/22 00:19:43;;;;;;;0.00;0.00;;;18.60;99.90;;;;;;4916213;28;20040;-69
2023/08/22 00:22:08;;;;;;;1.45;0.40;;;18.60;99.90;;;;;;4958451;28;20052;-69
2023/08/22 00:24:35;;;;;;;0.10;0.10;;;18.50;99.90;;;;;;4936105;28;20037;-69
2023/08/22 00:27:01;;;;;;;0.20;0.20;;;18.50;99.90;;;;;;4960397;28;20048;-69
2023/08/22 00:29:27;;;;;;;0.15;0.13;;;18.40;99.90;;;;;;4957220;28;20063;-69
2023/08/22 00:31:52;;;;;;;0.45;0.45;;;18.50;99.90;;;;;;4917813;28;20054;-69
2023/08/22 00:34:18;;;;;;;0.20;0.20;;;18.50;99.90;;;;;;4913732;28;20135;-69
2023/08/22 00:36:43;;;;;;;0.38;0.38;;;18.40;99.90;;;;;;4960640;28;20030;-69
2023/08/22 00:39:09;;;;;;;0.00;0.00;;;18.50;99.90;;;;;;4938194;28;20535;-69
2023/08/22 00:41:34;;;;;;;1.13;0.43;;;18.40;99.90;;;;;;4962363;28;20032;-69
2023/08/22 00:44:00;;;;;;;0.00;0.00;;;18.40;99.90;;;;;;4938111;28;20481;-69
2023/08/22 00:46:29;;;;;;;0.03;0.03;;;18.40;99.90;;;;;;4936243;28;20059;-69
2023/08/22 00:48:55;;;;;;;0.00;0.00;;;18.40;99.90;;;;;;4965891;28;20680;-69
2023/08/22 00:51:21;;;;;;;5.38;0.52;;;18.40;99.90;;;;;;4910026;28;20102;-69
2023/08/22 00:53:47;;;;;;;0.00;0.00;;;18.40;99.90;;;;;;4951607;28;20044;-69
2023/08/22 00:56:14;;;;;;;0.08;0.08;;;18.40;99.90;;;;;;4932012;28;20048;-69
2023/08/22 00:58:40;;;;;;;0.70;0.70;;;18.40;99.90;;;;;;4944224;28;20036;-69
2023/08/22 01:01:05;;;;;;;0.55;0.32;;;18.40;99.90;;;;;;4948580;28;20087;-69
2023/08/22 01:03:31;;;;;;;0.10;0.03;;;18.50;99.90;;;;;;4915416;28;20076;-69
2023/08/22 01:06:24;;;;;;;0.00;0.00;;;18.40;99.90;;;;;;4945324;28;20052;-69
2023/08/22 01:08:55;;;;;;;0.10;0.10;;;18.50;99.90;;;;;;4959827;28;20052;-69
2023/08/22 01:11:38;;;;;;;0.00;0.00;;;18.60;99.90;;;;;;4920419;28;20051;-69
2023/08/22 01:14:09;;;;;;;0.00;0.00;;;18.60;99.90;;;;;;4950836;28;20040;-69
2023/08/22 01:16:36;;;;;;;0.00;0.00;;;18.50;99.90;;;;;;4910645;28;20107;-69
2023/08/22 01:19:07;;;;;;;0.28;0.28;;;18.50;99.90;;;;;;4915935;28;20040;-69
2023/08/22 01:21:36;;;;;;;0.10;0.10;;;18.40;99.90;;;;;;4923855;28;20383;-69
2023/08/22 01:24:03;;;;;;;0.10;0.10;;;18.40;99.90;;;;;;4952959;28;20075;-69
2023/08/22 01:26:29;;;;;;;0.20;0.20;;;18.40;99.90;;;;;;4904906;28;20042;-70
2023/08/22 01:29:03;;;;;;;0.08;0.08;;;18.40;99.90;;;;;;4942757;28;20048;-69
2023/08/22 01:31:47;;;;;;;0.00;0.00;;;18.30;99.90;;;;;;4957921;28;20051;-69
2023/08/22 01:34:39;;;;;;;0.50;0.38;;;18.30;99.90;;;;;;4940962;28;20042;-69
2023/08/22 01:37:09;;;;;;;0.43;0.43;;;18.20;99.90;;;;;;4926139;28;20056;-69
2023/08/22 01:39:37;;;;;;;0.00;0.00;;;18.20;99.90;;;;;;4962198;28;20066;-69
2023/08/22 01:42:04;;;;;;;0.17;0.17;;;18.20;99.90;;;;;;4961314;28;20048;-69
2023/08/22 01:44:29;;;;;;;0.03;0.03;;;18.20;99.90;;;;;;4927121;28;20492;-69
2023/08/22 01:46:55;;;;;;;0.32;0.32;;;18.20;99.90;;;;;;4941823;28;20042;-69
2023/08/22 01:49:21;;;;;;;0.00;0.00;;;18.10;99.90;;;;;;4916153;28;20036;-69
2023/08/22 01:51:47;;;;;;;0.00;0.00;;;18.10;99.90;;;;;;4942542;28;20238;-69
2023/08/22 01:54:13;;;;;;;0.73;0.73;;;18.10;99.90;;;;;;4917043;28;20759;-69
2023/08/22 01:56:39;;;;;;;0.13;0.13;;;18.00;99.90;;;;;;4951934;28;20059;-69
2023/08/22 01:59:05;;;;;;;0.22;0.22;;;17.90;99.90;;;;;;4934058;28;20033;-69
2023/08/22 02:01:30;;;;;;;0.15;0.08;;;17.90;99.90;;;;;;4953418;28;20047;-69
2023/08/22 02:04:01;;;;;;;1.10;1.00;;;17.90;99.90;;;;;;4970605;28;20046;-69
2023/08/22 02:06:27;;;;;;;0.20;0.20;;;17.90;99.90;;;;;;4958093;28;20056;-69
2023/08/22 02:08:52;;;;;;;0.00;0.00;;;17.80;99.90;;;;;;4916329;28;20047;-69
2023/08/22 02:11:18;;;;;;;0.00;0.00;;;17.80;99.90;;;;;;4942010;28;20128;-69
2023/08/22 02:13:44;;;;;;;0.30;0.30;;;17.70;99.90;;;;;;4946515;28;20592;-69
2023/08/22 02:16:10;;;;;;;0.30;0.30;;;17.70;99.90;;;;;;4938871;28;20094;-69
2023/08/22 02:18:35;;;;;;;0.22;0.22;;;17.70;99.90;;;;;;4924523;28;20111;-69
2023/08/22 02:21:01;;;;;;;0.52;0.43;;;17.60;99.90;;;;;;4973448;28;20497;-69
2023/08/22 02:23:26;;;;;;;0.90;0.90;;;17.60;99.90;;;;;;4902563;28;20086;-69
2023/08/22 02:25:52;;;;;;;0.00;0.00;;;17.60;99.90;;;;;;4947924;28;20051;-69
2023/08/22 02:28:18;;;;;;;0.10;0.10;;;17.60;99.90;;;;;;4949306;28;20043;-69
2023/08/22 02:30:43;;;;;;;0.05;0.05;;;17.60;99.90;;;;;;4915285;28;20099;-69
2023/08/22 02:33:09;;;;;;;0.03;0.03;;;17.60;99.90;;;;;;4911250;28;20060;-69
2023/08/22 02:35:35;;;;;;;0.15;0.15;;;17.50;99.90;;;;;;4966724;28;20474;-69
2023/08/22 02:38:00;;;;;;;0.20;0.20;;;17.50;99.90;;;;;;4933356;28;20055;-69
2023/08/22 02:40:26;;;;;;;0.00;0.00;;;17.50;99.90;;;;;;4950790;28;20076;-69
2023/08/22 02:42:52;;;;;;;0.10;0.10;;;17.50;99.90;;;;;;4964510;28;20052;-69
2023/08/22 02:45:18;;;;;;;0.15;0.15;;;17.50;99.90;;;;;;4910739;28;20048;-69
2023/08/22 02:47:43;;;;;;;0.32;0.32;;;17.50;99.90;;;;;;4927790;28;20036;-69
2023/08/22 02:50:09;;;;;;;0.10;0.10;;;17.40;99.90;;;;;;4952148;28;20084;-69
2023/08/22 02:52:35;;;;;;;0.00;0.00;;;17.50;99.90;;;;;;4920944;28;20040;-69
2023/08/22 02:55:01;;;;;;;0.13;0.13;;;17.40;99.90;;;;;;4934052;28;20945;-69
2023/08/22 02:57:27;;;;;;;2.47;1.35;;;17.40;99.90;;;;;;4949328;28;20052;-70
2023/08/22 02:59:52;;;;;;;0.13;0.13;;;17.40;99.90;;;;;;4954510;28;20095;-69
2023/08/22 03:02:18;;;;;;;0.17;0.17;;;17.40;99.90;;;;;;4972502;28;20405;-69
2023/08/22 03:04:44;;;;;;;0.20;0.20;;;17.30;99.90;;;;;;4905138;28;20048;-69
2023/08/22 03:07:10;;;;;;;0.15;0.15;;;17.20;99.90;;;;;;4905495;28;20171;-69
2023/08/22 03:09:38;;;;;;;0.20;0.20;;;17.20;99.90;;;;;;4906254;28;20052;-69
2023/08/22 03:12:05;;;;;;;0.20;0.20;;;17.20;99.90;;;;;;4968702;28;20046;-69
2023/08/22 03:14:30;;;;;;;0.00;0.00;;;17.20;99.90;;;;;;4948808;28;20034;-69
2023/08/22 03:16:56;;;;;;;0.98;0.95;;;17.20;99.90;;;;;;4931822;28;20090;-69
2023/08/22 03:19:21;;;;;;;0.20;0.20;;;17.10;99.90;;;;;;4943464;28;20042;-69
2023/08/22 03:21:47;;;;;;;0.50;0.50;;;17.00;99.90;;;;;;4942665;28;20052;-69
2023/08/22 03:24:13;;;;;;;0.20;0.20;;;17.00;99.90;;;;;;4932548;28;20113;-69
2023/08/22 03:26:38;;;;;;;0.75;0.55;;;16.90;99.90;;;;;;4970066;28;20055;-69
2023/08/22 03:29:04;;;;;;;0.65;0.52;;;17.00;99.90;;;;;;4936502;28;20044;-69
2023/08/22 03:31:29;;;;;;;0.65;0.65;;;17.00;99.90;;;;;;4967241;28;20476;-69
2023/08/22 03:33:55;;;;;;;0.73;0.73;;;17.00;99.90;;;;;;4925686;28;20068;-69
2023/08/22 03:36:21;;;;;;;0.35;0.35;;;17.00;99.90;;;;;;4922547;28;20059;-69
2023/08/22 03:38:50;;;;;;;0.30;0.10;;;17.00;99.90;;;;;;4948288;28;20474;-69
2023/08/22 03:41:17;;;;;;;0.65;0.65;;;17.00;99.90;;;;;;4981097;28;20117;-69
2023/08/22 03:43:43;;;;;;;0.45;0.20;;;17.00;99.90;;;;;;4910139;28;21180;-69
2023/08/22 03:46:08;;;;;;;0.45;0.45;;;17.00;99.90;;;;;;4925925;28;20187;-69
2023/08/22 03:48:34;;;;;;;0.10;0.10;;;17.00;99.90;;;;;;4965282;28;20048;-69
2023/08/22 03:50:59;;;;;;;0.52;0.40;;;16.90;99.90;;;;;;4954076;28;20154;-69
2023/08/22 03:53:25;;;;;;;0.10;0.10;;;16.90;99.90;;;;;;4915866;28;20053;-69
2023/08/22 03:55:51;;;;;;;0.22;0.22;;;16.90;99.90;;;;;;4950481;28;20036;-69
2023/08/22 03:58:17;;;;;;;0.60;0.60;;;16.80;99.90;;;;;;4964089;28;20053;-69
2023/08/22 04:00:42;;;;;;;0.22;0.22;;;16.80;99.90;;;;;;4932310;28;20115;-69
2023/08/22 04:03:08;;;;;;;0.40;0.40;;;16.80;99.90;;;;;;4959891;28;20034;-69
2023/08/22 04:05:34;;;;;;;0.45;0.43;;;16.70;99.90;;;;;;4938797;28;20552;-69
2023/08/22 04:07:59;;;;;;;0.10;0.10;;;16.80;99.90;;;;;;4933608;28;20047;-69
2023/08/22 04:10:25;;;;;;;0.15;0.15;;;16.80;99.90;;;;;;4903844;28;20044;-69
2023/08/22 04:12:51;;;;;;;0.10;0.10;;;16.70;99.90;;;;;;4943104;28;20040;-69
2023/08/22 04:15:17;;;;;;;0.10;0.10;;;16.70;99.90;;;;;;4947778;28;20123;-69
2023/08/22 04:17:42;;;;;;;0.00;0.00;;;16.80;99.90;;;;;;4943560;28;20053;-69
2023/08/22 04:20:10;;;;;;;0.00;0.00;;;16.80;99.90;;;;;;4966663;28;20484;-69
2023/08/22 04:22:42;;;;;;;0.10;0.10;;;16.80;99.90;;;;;;4925073;28;20052;-69
2023/08/22 04:25:11;;;;;;;0.10;0.10;;;16.70;99.90;;;;;;4913628;28;20503;-69
2023/08/22 04:27:37;;;;;;;4.47;2.20;;;16.70;99.90;;;;;;4921295;28;20775;-69
2023/08/22 04:30:03;;;;;;;1.08;1.08;;;16.70;99.90;;;;;;4955484;28;20156;-69
2023/08/22 04:32:29;;;;;;;0.00;0.00;;;16.70;99.90;;;;;;4970403;28;20140;-69
2023/08/22 04:34:54;;;;;;;0.30;0.30;;;16.80;99.90;;;;;;4947866;28;20138;-69
2023/08/22 04:37:21;;;;;;;0.85;0.32;;;16.80;99.90;;;;;;4931892;28;20044;-69
2023/08/22 04:39:46;;;;;;;0.70;0.52;;;16.80;99.90;;;;;;4958807;28;20129;-69
2023/08/22 04:42:12;;;;;;;0.00;0.00;;;16.70;99.90;;;;;;4942755;28;20478;-69
2023/08/22 04:44:37;;;;;;;0.03;0.03;;;16.70;99.90;;;;;;4946670;28;20046;-69
2023/08/22 04:47:03;;;;;;;5.85;0.63;;;16.70;99.90;;;;;;4952167;28;20119;-69
2023/08/22 04:49:29;;;;;;;0.10;0.10;;;16.70;99.90;;;;;;4933956;28;20056;-70
2023/08/22 04:51:55;;;;;;;0.20;0.20;;;16.70;99.90;;;;;;4972226;28;20121;-69
2023/08/22 04:54:20;;;;;;;0.32;0.32;;;16.60;99.90;;;;;;4948290;28;20040;-69
2023/08/22 04:56:46;;;;;;;0.00;0.00;;;16.60;99.90;;;;;;4940230;28;20190;-69
2023/08/22 04:59:11;;;;;;;0.00;0.00;;;16.70;99.90;;;;;;4919368;28;20646;-69
2023/08/22 05:01:37;;;;;;;0.05;0.05;;;16.70;99.90;;;;;;4975181;28;20045;-69
2023/08/22 05:04:03;;;;;;;0.45;0.45;;;16.80;99.90;;;;;;4954739;28;20135;-69
2023/08/22 05:06:28;;;;;;;0.40;0.40;;;16.80;99.90;;;;;;4942183;28;20042;-69
2023/08/22 05:08:54;;;;;;;0.15;0.15;;;16.90;99.90;;;;;;4949456;28;20091;-69
2023/08/22 05:11:19;;;;;;;0.28;0.28;;;16.90;99.90;;;;;;4931046;28;20045;-69
2023/08/22 05:13:45;;;;;;;0.10;0.05;;;17.00;99.90;;;;;;4911855;28;20491;-69
2023/08/22 05:16:11;;;;;;;0.10;0.10;;;17.00;99.90;;;;;;4915064;28;20100;-69
2023/08/22 05:18:36;;;;;;;0.75;0.70;;;17.10;99.90;;;;;;4901188;28;20052;-69
2023/08/22 05:21:02;;;;;;;0.10;0.10;;;17.10;99.90;;;;;;4941804;28;20042;-69
2023/08/22 05:23:28;;;;;;;0.00;0.00;;;17.20;99.90;;;;;;4966420;28;20040;-69
2023/08/22 05:25:54;;;;;;;0.10;0.10;;;17.20;99.90;;;;;;4974596;28;20401;-69
2023/08/22 05:28:20;;;;;;;0.22;0.20;;;17.30;99.90;;;;;;4915901;28;20106;-69
2023/08/22 05:30:45;;;;;;;1.17;0.30;;;17.30;99.90;;;;;;4952372;28;20038;-69
2023/08/22 05:33:11;;;;;;;0.00;0.00;;;17.40;99.90;;;;;;4931751;28;20064;-69
2023/08/22 05:35:36;;;;;;;0.08;0.08;;;17.40;99.90;;;;;;4932870;28;20124;-69
2023/08/22 05:38:02;;;;;;;9.70;0.60;;;17.50;99.90;;;;;;4914567;28;21141;-69
2023/08/22 05:40:30;;;;;;;0.00;0.00;;;17.50;99.90;;;;;;4913876;28;20089;-69
2023/08/22 05:42:55;;;;;;;0.10;0.10;;;17.50;99.90;;;;;;4949188;28;20052;-69
2023/08/22 05:45:21;;;;;;;0.43;0.43;;;17.50;99.90;;;;;;4938233;28;20455;-69
2023/08/22 05:47:46;;;;;;;0.55;0.55;;;17.60;99.90;;;;;;4915862;28;20032;-69
2023/08/22 05:50:12;;;;;;;0.00;0.00;;;17.60;99.90;;;;;;4937980;28;20510;-69
2023/08/22 05:52:38;;;;;;;0.20;0.20;;;17.60;99.90;;;;;;4940288;28;20128;-69
2023/08/22 05:55:04;;;;;;;0.00;0.00;;;17.70;99.90;;;;;;4966871;28;20081;-69
2023/08/22 05:57:29;;;;;;;0.00;0.00;;;17.70;99.90;;;;;;4910226;28;20044;-69
2023/08/22 05:59:56;;;;;;;0.00;0.00;;;17.80;99.90;;;;;;4934453;28;20541;-69
2023/08/22 06:02:21;;;;;;;0.08;0.08;;;17.80;99.90;;;;;;4932034;28;20058;-69
2023/08/22 06:04:47;;;;;;;0.00;0.00;;;17.90;99.90;;;;;;4946994;28;20071;-69
2023/08/22 06:07:13;;;;;;;0.00;0.00;;;17.90;99.90;;;;;;4965037;28;20077;-70
2023/08/22 06:09:39;;;;;;;0.00;0.00;;;18.00;99.90;;;;;;4926074;28;20412;-69
2023/08/22 06:12:05;;;;;;;0.10;0.10;;;18.00;99.90;;;;;;4936667;28;20048;-69
2023/08/22 06:14:31;;;;;;;0.40;0.40;;;18.00;99.90;;;;;;4948276;28;20488;-69
2023/08/22 06:16:57;;;;;;;1.90;0.80;;;18.10;99.90;;;;;;4919418;28;20056;-69
2023/08/22 06:19:23;;;;;;;0.00;0.00;;;18.10;99.90;;;;;;4927448;28;20051;-70
2023/08/22 06:21:48;;;;;;;0.00;0.00;;;18.20;99.90;;;;;;4913182;28;20052;-69
2023/08/22 06:24:14;;;;;;;0.10;0.10;;;18.10;99.90;;;;;;4944821;28;20075;-69
2023/08/22 06:26:41;;;;;;;0.00;0.00;;;18.20;99.90;;;;;;4908891;28;20071;-69
2023/08/22 06:29:06;;;;;;;0.00;0.00;;;18.30;99.90;;;;;;4914197;28;20094;-69
2023/08/22 06:31:32;;;;;;;0.00;0.00;;;18.40;99.90;;;;;;4944988;28;20041;-69
2023/08/22 06:33:58;;;;;;;0.80;0.80;;;18.40;99.90;;;;;;4897855;28;20675;-69
2023/08/22 06:36:23;;;;;;;1.08;1.02;;;18.50;99.90;;;;;;4962417;28;20087;-69
2023/08/22 06:38:49;;;;;;;0.28;0.28;;;18.50;99.90;;;;;;4946396;28;20051;-69
2023/08/22 06:41:16;;;;;;;0.10;0.10;;;18.60;99.90;;;;;;4918255;28;20053;-69
2023/08/22 06:43:42;;;;;;;0.10;0.10;;;18.70;99.90;;;;;;4921310;28;20057;-69
2023/08/22 06:46:08;;;;;;;0.13;0.13;;;18.70;99.90;;;;;;4931896;28;20048;-69
2023/08/22 06:48:33;;;;;;;0.00;0.00;;;18.80;99.90;;;;;;4922041;28;20046;-69
2023/08/22 06:50:59;;;;;;;1.35;1.17;;;18.80;99.90;;;;;;4943063;28;20045;-69
2023/08/22 06:53:24;;;;;;;0.00;0.00;;;18.90;99.90;;;;;;4926325;28;20149;-69
2023/08/22 06:55:50;;;;;;;0.13;0.13;;;18.90;99.90;;;;;;4914102;28;20037;-69
2023/08/22 06:58:16;;;;;;;0.00;0.00;;;18.90;99.90;;;;;;4950618;28;20051;-69
2023/08/22 07:00:42;;;;;;;0.10;0.10;;;18.90;99.90;;;;;;4945071;28;21450;-69
2023/08/22 07:03:08;;;;;;;0.30;0.10;;;18.90;99.90;;;;;;4969071;28;20116;-69
2023/08/22 07:05:37;;;;;;;0.25;0.25;;;18.90;99.90;;;;;;4956496;28;20050;-68
2023/08/22 07:08:03;;;;;;;0.10;0.10;;;19.00;99.90;;;;;;4967822;28;20056;-68
2023/08/22 07:10:29;;;;;;;0.25;0.25;;;19.10;99.90;;;;;;4939361;28;20308;-69
2023/08/22 07:12:54;;;;;;;0.25;0.25;;;19.10;99.90;;;;;;4954640;28;20052;-69
2023/08/22 07:15:20;;;;;;;1.52;0.60;;;19.20;99.90;;;;;;4940989;28;20040;-69
2023/08/22 07:17:46;;;;;;;0.20;0.20;;;19.30;99.90;;;;;;4935300;28;20052;-69
2023/08/22 07:20:12;;;;;;;0.00;0.00;;;19.30;99.90;;;;;;4977930;28;20044;-69
2023/08/22 07:22:38;;;;;;;0.10;0.10;;;19.40;99.90;;;;;;4967244;28;20405;-68
2023/08/22 07:25:04;;;;;;;0.25;0.20;;;19.50;99.90;;;;;;4953521;28;20044;-69
2023/08/22 07:27:29;;;;;;;0.17;0.17;;;19.50;99.90;;;;;;4936140;28;20050;-69
2023/08/22 07:29:55;;;;;;;0.00;0.00;;;19.50;99.90;;;;;;4955302;28;20059;-68
2023/08/22 07:32:21;;;;;;;0.17;0.17;;;19.50;99.90;;;;;;4953296;28;20140;-68
2023/08/22 07:34:49;;;;;;;0.90;0.75;;;19.50;99.90;;;;;;4943988;28;20051;-68
2023/08/22 07:37:16;;;;;;;0.17;0.17;;;19.60;99.90;;;;;;4947824;28;20087;-69
2023/08/22 07:39:42;;;;;;;0.47;0.20;;;19.60;99.90;;;;;;4914827;28;20040;-69
2023/08/22 07:42:08;;;;;;;0.10;0.10;;;19.70;99.90;;;;;;4949690;28;20048;-68
2023/08/22 07:44:34;;;;;;;4.45;0.77;;;19.70;99.90;;;;;;4938645;28;20063;-69
2023/08/22 07:47:00;;;;;;;0.03;0.03;;;19.70;99.90;;;;;;4943144;28;20040;-68
2023/08/22 07:49:26;;;;;;;0.00;0.00;;;19.70;99.90;;;;;;4924072;28;20507;-68
2023/08/22 07:51:52;;;;;;;1.48;0.40;;;19.80;99.90;;;;;;4915504;28;20034;-69
2023/08/22 07:54:18;;;;;;;0.00;0.00;;;19.80;99.90;;;;;;4949266;28;20110;-68
2023/08/22 07:56:45;;;;;;;0.00;0.00;;;19.90;99.90;;;;;;4959123;28;20397;-68
2023/08/22 07:59:12;;;;;;;1.13;0.55;;;20.00;99.90;;;;;;4924323;28;20046;-68
2023/08/22 08:01:37;;;;;;;1.27;0.52;;;20.00;99.90;;;;;;4989823;28;20100;-69
2023/08/22 08:04:03;;;;;;;0.30;0.30;;;20.00;99.90;;;;;;4934752;28;20439;-68
2023/08/22 08:06:36;;;;;;;0.00;0.00;;;20.10;99.90;;;;;;4911385;28;20059;-68
2023/08/22 08:09:04;;;;;;;0.22;0.22;;;20.20;99.90;;;;;;4972414;28;20041;-68
2023/08/22 08:11:30;;;;;;;0.03;0.03;;;20.20;99.90;;;;;;4953168;28;20058;-69
2023/08/22 08:13:56;;;;;;;1.38;1.27;;;20.30;99.90;;;;;;4937490;28;20491;-68
2023/08/22 08:16:22;;;;;;;0.00;0.00;;;20.30;99.90;;;;;;4966874;28;20096;-68
2023/08/22 08:18:50;;;;;;;0.17;0.17;;;20.20;99.90;;;;;;4955133;28;20049;-68
2023/08/22 08:21:15;;;;;;;0.00;0.00;;;20.20;99.90;;;;;;4929789;28;20046;-68
2023/08/22 08:23:43;;;;;;;0.10;0.10;;;20.20;99.90;;;;;;4958272;28;20048;-68
2023/08/22 08:26:08;;;;;;;1.55;0.63;;;20.30;99.90;;;;;;4943940;28;20044;-69
2023/08/22 08:28:34;;;;;;;0.28;0.28;;;20.30;99.90;;;;;;4916336;28;20042;-68
2023/08/22 08:30:59;;;;;;;0.32;0.32;;;20.30;99.90;;;;;;4970320;28;20608;-69
2023/08/22 08:33:25;;;;;;;0.52;0.40;;;20.40;99.90;;;;;;4910555;28;20125;-69
2023/08/22 08:35:51;;;;;;;0.40;0.35;;;20.40;99.90;;;;;;4944770;28;20049;-68
2023/08/22 08:38:16;;;;;;;0.38;0.38;;;20.40;99.90;;;;;;4952212;28;20048;-68
2023/08/22 08:40:44;;;;;;;1.30;0.43;;;20.50;99.90;;;;;;4959902;28;20121;-69
2023/08/22 08:43:10;;;;;;;0.80;0.43;;;20.50;99.90;;;;;;4954913;28;20048;-68
2023/08/22 08:45:36;;;;;;;0.00;0.00;;;20.40;99.90;;;;;;4947006;28;20107;-69
2023/08/22 08:48:03;;;;;;;1.08;0.68;;;20.50;99.90;;;;;;4926551;28;20082;-67
2023/08/22 08:50:31;;;;;;;0.03;0.03;;;20.40;99.90;;;;;;4957056;28;20041;-69
2023/08/22 08:52:56;;;;;;;0.20;0.20;;;20.40;99.90;;;;;;4898869;28;20044;-68
2023/08/22 08:55:22;;;;;;;0.30;0.30;;;20.50;99.90;;;;;;4940161;28;20036;-68
2023/08/22 08:57:48;;;;;;;0.28;0.28;;;20.50;99.90;;;;;;4965439;28;20084;-68
2023/08/22 09:00:15;;;;;;;0.22;0.22;;;20.60;99.90;;;;;;4967667;28;20033;-69
2023/08/22 09:02:41;;;;;;;0.25;0.25;;;20.70;99.90;;;;;;4929923;28;20060;-68
2023/08/22 09:05:08;;;;;;;1.02;0.68;;;20.80;99.90;;;;;;4968024;28;20091;-68
2023/08/22 09:07:33;;;;;;;0.30;0.30;;;21.00;99.90;;;;;;4934584;28;20044;-69
2023/08/22 09:10:01;;;;;;;0.20;0.20;;;21.10;99.90;;;;;;4989833;28;20135;-69
2023/08/22 09:12:35;;;;;;;0.52;0.45;;;21.30;99.90;;;;;;4938591;28;20056;-69
2023/08/22 09:15:01;;;;;;;0.00;0.00;;;21.90;99.90;;;;;;4977756;28;20054;-69
2023/08/22 09:17:30;;;;;;;0.30;0.30;;;22.50;99.90;;;;;;4967946;28;20495;-69
2023/08/22 09:19:56;;;;;;;0.08;0.08;;;23.00;99.90;;;;;;4965364;28;20045;-69
2023/08/22 09:22:30;;;;;;;0.73;0.73;;;23.60;99.90;;;;;;4954461;28;20038;-69
2023/08/22 09:24:55;;;;;;;0.15;0.15;;;23.70;99.90;;;;;;4946487;28;20117;-69
2023/08/22 09:27:25;;;;;;;1.02;0.32;;;23.80;99.90;;;;;;4968484;28;20033;-70
2023/08/22 09:29:51;;;;;;;0.00;0.00;;;24.30;99.90;;;;;;4969604;28;20052;-69
2023/08/22 09:32:19;;;;;;;0.57;0.20;;;24.50;99.90;;;;;;4931111;28;20059;-69
2023/08/22 09:34:56;;;;;;;0.17;0.17;;;24.30;99.90;;;;;;4952824;28;20500;-70
2023/08/22 09:37:35;;;;;;;0.68;0.35;;;24.30;99.90;;;;;;4984647;28;20481;-69
2023/08/22 09:40:06;;;;;;;0.10;0.10;;;24.30;99.90;;;;;;4919987;28;20048;-69
2023/08/22 09:42:31;;;;;;;1.08;0.70;;;24.50;99.90;;;;;;4960714;28;20136;-69
2023/08/22 09:44:58;;;;;;;0.10;0.10;;;24.70;99.90;;;;;;4928958;28;20115;-69
2023/08/22 09:47:39;;;;;;;4.68;0.38;;;25.00;99.90;;;;;;4955287;28;20379;-69
2023/08/22 09:50:06;;;;;;;0.73;0.73;;;24.90;99.90;;;;;;4939296;28;20108;-68
2023/08/22 09:52:36;;;;;;;0.00;0.00;;;25.00;99.90;;;;;;4939148;28;20123;-71
2023/08/22 09:55:02;;;;;;;0.63;0.40;;;25.00;99.90;;;;;;4953218;28;20040;-70
2023/08/22 09:57:29;;;;;;;0.45;0.45;;;25.10;99.90;;;;;;4952107;28;20466;-70
2023/08/22 09:59:58;;;;;;;0.20;0.20;;;25.40;99.90;;;;;;4931195;28;20540;-70
2023/08/22 10:02:24;;;;;;;0.52;0.52;;;25.50;99.90;;;;;;4942074;28;20045;-70
2023/08/22 10:04:50;;;;;;;0.43;0.43;;;25.70;99.90;;;;;;4924187;28;20111;-70
2023/08/22 10:07:15;;;;;;;0.28;0.28;;;25.90;99.90;;;;;;4919328;28;20044;-70
2023/08/22 10:09:42;;;;;;;0.55;0.45;;;25.80;99.90;;;;;;4985375;28;20053;-69
2023/08/22 10:12:12;;;;;;;0.30;0.30;;;25.90;99.90;;;;;;4910642;28;20048;-69
2023/08/22 10:14:50;;;;;;;0.52;0.30;;;25.80;99.90;;;;;;4909058;28;20934;-69
2023/08/22 10:17:16;;;;;;;0.00;0.00;;;25.60;99.90;;;;;;4957607;28;20042;-69
2023/08/22 10:19:42;;;;;;;0.47;0.45;;;25.60;99.90;;;;;;4947183;28;20401;-69
2023/08/22 10:22:13;;;;;;;0.80;0.68;;;25.60;99.90;;;;;;4947155;28;20492;-70
2023/08/22 10:24:40;;;;;;;0.00;0.00;;;25.60;99.90;;;;;;4924908;28;20100;-70
2023/08/22 10:27:14;;;;;;;0.68;0.68;;;25.60;99.90;;;;;;4944710;28;20128;-70
2023/08/22 10:29:46;;;;;;;0.03;0.03;;;25.60;99.90;;;;;;4914874;28;20058;-70
2023/08/22 10:32:12;;;;;;;1.05;0.45;;;25.50;99.90;;;;;;4925341;28;20063;-69
2023/08/22 10:34:37;;;;;;;0.10;0.08;;;25.00;99.90;;;;;;4943651;28;20054;-69
2023/08/22 10:37:04;;;;;;;0.00;0.00;;;25.10;99.90;;;;;;4898019;28;20045;-69
2023/08/22 10:39:47;;;;;;;0.60;0.60;;;25.20;99.90;;;;;;4937544;28;20046;-69
2023/08/22 10:42:13;;;;;;;0.05;0.05;;;25.10;99.90;;;;;;4947479;28;20096;-69
2023/08/22 10:44:39;;;;;;;0.10;0.10;;;25.10;99.90;;;;;;4953433;28;20050;-69
2023/08/22 10:47:22;;;;;;;0.10;0.10;;;25.30;99.90;;;;;;4969059;28;20059;-69
2023/08/22 10:49:50;;;;;;;0.35;0.30;;;25.40;99.90;;;;;;4929098;28;20503;-69
2023/08/22 10:52:16;;;;;;;0.00;0.00;;;25.20;99.90;;;;;;4932941;28;20041;-69
2023/08/22 10:55:08;;;;;;;0.20;0.20;;;25.10;99.90;;;;;;4927166;28;20048;-69
2023/08/22 10:57:38;;;;;;;0.77;0.77;;;24.70;99.90;;;;;;4928719;28;20060;-68
2023/08/22 11:00:12;;;;;;;0.00;0.00;;;24.70;99.90;;;;;;4956056;28;20052;-69
2023/08/22 11:02:40;;;;;;;0.75;0.75;;;24.70;99.90;;;;;;4952102;28;20096;-69
2023/08/22 11:05:11;;;;;;;0.00;0.00;;;24.50;99.90;;;;;;4907581;28;20094;-69
2023/08/22 11:07:41;;;;;;;0.20;0.20;;;24.80;99.90;;;;;;4962561;28;20112;-69
2023/08/22 11:10:18;;;;;;;0.00;0.00;;;25.20;99.90;;;;;;4963293;28;20042;-69
2023/08/22 11:12:45;;;;;;;0.00;0.00;;;25.30;99.90;;;;;;4931510;28;20091;-69
2023/08/22 11:15:11;;;;;;;0.10;0.10;;;25.40;99.90;;;;;;4950093;28;20457;-69
2023/08/22 11:17:40;;;;;;;0.15;0.15;;;25.20;99.90;;;;;;4931008;28;20447;-69
2023/08/22 11:20:14;;;;;;;0.15;0.15;;;25.10;99.90;;;;;;4964968;28;20055;-69
2023/08/22 11:22:43;;;;;;;4.85;0.43;;;25.00;99.90;;;;;;4942112;28;20048;-69
2023/08/22 11:25:10;;;;;;;0.00;0.00;;;25.00;99.90;;;;;;4949138;28;20040;-69
2023/08/22 11:27:38;;;;;;;0.20;0.20;;;25.00;99.90;;;;;;4913567;28;20059;-69
2023/08/22 11:30:05;;;;;;;0.03;0.03;;;25.20;99.90;;;;;;4951688;28;20053;-69
2023/08/22 11:32:36;;;;;;;0.35;0.32;;;25.20;99.90;;;;;;4918182;28;20054;-69
2023/08/22 11:35:04;;;;;;;1.58;0.65;;;25.20;99.90;;;;;;4964400;28;20375;-69
2023/08/22 11:37:31;;;;;;;0.15;0.15;;;25.40;99.90;;;;;;4952793;28;20125;-69
2023/08/22 11:39:58;;;;;;;0.43;0.22;;;25.50;99.90;;;;;;4923868;28;20045;-68
2023/08/22 11:42:24;;;;;;;0.08;0.08;;;25.80;99.90;;;;;;4931005;28;20051;-67
2023/08/22 11:45:03;;;;;;;0.00;0.00;;;25.50;99.90;;;;;;4968916;28;20132;-67
2023/08/22 11:47:48;;;;;;;0.00;0.00;;;25.70;99.90;;;;;;4957826;28;20040;-68
2023/08/22 11:50:14;;;;;;;1.08;0.65;;;25.90;99.90;;;;;;4936722;28;20048;-69
2023/08/22 11:52:44;;;;;;;0.20;0.20;;;25.50;99.90;;;;;;4930412;28;20171;-69
2023/08/22 11:55:12;;;;;;;0.32;0.32;;;25.60;99.90;;;;;;4914878;28;20131;-69
2023/08/22 11:57:40;;;;;;;0.35;0.20;;;25.80;99.90;;;;;;4964715;28;20485;-69
2023/08/22 12:00:07;;;;;;;0.22;0.22;;;25.80;99.90;;;;;;4952659;28;20385;-68
2023/08/22 12:02:33;;;;;;;0.15;0.13;;;25.70;99.90;;;;;;4966157;28;20247;-69
2023/08/22 12:04:59;;;;;;;0.00;0.00;;;25.80;99.90;;;;;;4934899;28;20045;-69
2023/08/22 12:07:25;;;;;;;0.00;0.00;;;25.70;99.90;;;;;;4968676;28;20048;-69
2023/08/22 12:10:07;;;;;;;1.95;0.98;;;25.80;99.90;;;;;;4993346;28;20533;-69
2023/08/22 12:12:32;;;;;;;0.80;0.40;;;25.70;99.90;;;;;;4928336;28;20048;-69
2023/08/22 12:14:59;;;;;;;0.38;0.30;;;25.80;99.90;;;;;;4962983;28;20057;-69
2023/08/22 12:17:25;;;;;;;0.00;0.00;;;25.80;99.90;;;;;;4977738;28;20073;-69
2023/08/22 12:19:51;;;;;;;0.17;0.05;;;26.10;99.90;;;;;;4924874;28;20117;-68
2023/08/22 12:22:17;;;;;;;0.55;0.25;;;26.60;99.90;;;;;;4954786;28;20481;-68
2023/08/22 12:24:44;;;;;;;0.38;0.38;;;26.50;99.90;;;;;;4937843;28;20044;-69
2023/08/22 12:27:10;;;;;;;0.10;0.10;;;26.60;99.90;;;;;;4968228;28;20045;-68
2023/08/22 12:29:36;;;;;;;0.00;0.00;;;26.70;99.90;;;;;;4929324;28;20516;-68
2023/08/22 12:32:02;;;;;;;0.10;0.03;;;26.60;99.90;;;;;;4955545;28;20048;-68
2023/08/22 12:34:27;;;;;;;0.30;0.22;;;26.80;99.90;;;;;;4916593;28;20041;-69
2023/08/22 12:36:53;;;;;;;2.30;1.48;;;27.00;99.90;;;;;;4957525;28;20225;-68
2023/08/22 12:39:19;;;;;;;0.00;0.00;;;27.20;99.90;;;;;;4936146;28;20052;-69
2023/08/22 12:41:44;;;;;;;0.00;0.00;;;27.30;99.90;;;;;;4963353;28;20081;-68
2023/08/22 12:44:10;;;;;;;0.25;0.25;;;27.50;99.90;;;;;;4966262;28;20054;-69
2023/08/22 12:46:35;;;;;;;0.10;0.10;;;27.40;99.90;;;;;;4921423;28;20711;-69